createdAt,value
2023-05-14T00:01:05.030Z,11.60
2023-05-14T00:03:33.827Z,12.20
2023-05-14T00:06:03.009Z,11.00
2023-05-14T00:08:31.654Z,13.00
2023-05-14T00:11:00.447Z,17.40
2023-05-14T00:13:29.487Z,8.90
2023-05-14T00:15:58.191Z,11.20
2023-05-14T00:18:27.056Z,9.70
2023-05-14T00:20:55.619Z,14.40
2023-05-14T00:23:24.803Z,12.00
2023-05-14T00:25:53.258Z,12.20
2023-05-14T00:28:22.399Z,15.10
2023-05-14T00:30:52.191Z,11.80
2023-05-14T00:33:20.794Z,15.00
2023-05-14T00:35:49.474Z,14.60
2023-05-14T00:38:19.688Z,14.20
2023-05-14T00:40:52.037Z,10.70
2023-05-14T00:43:22.727Z,15.10
2023-05-14T00:45:55.895Z,13.90
2023-05-14T00:48:25.372Z,13.80
2023-05-14T00:50:54.664Z,12.60
2023-05-14T00:53:23.272Z,15.10
2023-05-14T00:55:53.166Z,15.60
2023-05-14T00:58:22.909Z,13.40
2023-05-14T01:00:52.148Z,13.90
2023-05-14T01:03:20.921Z,16.60
2023-05-14T01:06:35.389Z,15.90
2023-05-14T01:09:15.036Z,17.10
2023-05-14T01:12:25.216Z,17.40
2023-05-14T01:15:29.174Z,14.10
2023-05-14T01:18:04.753Z,11.50
2023-05-14T01:20:33.498Z,13.10
2023-05-14T01:23:02.053Z,10.80
2023-05-14T01:25:32.445Z,11.20
2023-05-14T01:28:18.115Z,11.90
2023-05-14T01:31:09.891Z,17.50
2023-05-14T01:33:42.586Z,18.20
2023-05-14T01:36:11.570Z,12.90
2023-05-14T01:38:45.856Z,12.30
2023-05-14T01:41:18.687Z,11.10
2023-05-14T01:43:50.206Z,11.70
2023-05-14T01:46:20.027Z,10.70
2023-05-14T01:52:22.229Z,9.60
2023-05-14T01:54:52.103Z,15.60
2023-05-14T01:57:21.811Z,10.80
2023-05-14T01:59:50.586Z,15.30
2023-05-14T02:02:19.194Z,10.20
2023-05-14T02:04:47.853Z,8.80
2023-05-14T02:07:16.261Z,11.40
2023-05-14T02:09:44.643Z,9.10
2023-05-14T02:12:13.138Z,9.80
2023-05-14T02:14:41.530Z,9.30
2023-05-14T02:17:10.257Z,10.80
2023-05-14T02:19:38.708Z,10.80
2023-05-14T02:22:07.236Z,13.70
2023-05-14T02:24:35.654Z,16.50
2023-05-14T02:27:04.769Z,13.20
2023-05-14T02:29:33.156Z,13.80
2023-05-14T02:32:01.559Z,15.40
2023-05-14T02:34:30.132Z,10.80
2023-05-14T02:36:58.596Z,14.00
2023-05-14T02:39:27.270Z,13.10
2023-05-14T02:41:55.773Z,14.90
2023-05-14T02:44:24.334Z,9.80
2023-05-14T02:46:52.906Z,9.00
2023-05-14T02:49:21.551Z,10.70
2023-05-14T02:51:50.009Z,10.40
2023-05-14T02:54:18.580Z,12.00
2023-05-14T02:56:47.301Z,10.50
2023-05-14T02:59:15.897Z,9.80
2023-05-14T03:01:44.837Z,10.80
2023-05-14T03:04:13.948Z,9.90
2023-05-14T03:06:42.444Z,8.80
2023-05-14T03:09:11.278Z,10.30
2023-05-14T03:11:39.895Z,11.80
2023-05-14T03:14:08.380Z,9.80
2023-05-14T03:16:36.885Z,9.50
2023-05-14T03:19:05.359Z,11.70
2023-05-14T03:21:33.886Z,9.80
2023-05-14T03:24:02.968Z,11.10
2023-05-14T03:26:31.446Z,12.80
2023-05-14T03:29:00.034Z,12.70
2023-05-14T03:31:28.582Z,15.90
2023-05-14T03:33:58.162Z,12.10
2023-05-14T03:36:26.554Z,12.10
2023-05-14T03:38:55.075Z,15.50
2023-05-14T03:41:23.542Z,10.60
2023-05-14T03:43:52.133Z,13.70
2023-05-14T03:46:20.624Z,11.70
2023-05-14T03:48:49.396Z,13.80
2023-05-14T03:51:18.302Z,10.20
2023-05-14T03:53:46.804Z,13.30
2023-05-14T03:56:15.696Z,13.00
2023-05-14T03:58:44.173Z,9.10
2023-05-14T04:01:12.574Z,9.50
2023-05-14T04:03:41.084Z,9.00
2023-05-14T04:06:10.011Z,8.90
2023-05-14T04:08:39.837Z,15.10
2023-05-14T04:11:08.436Z,11.90
2023-05-14T04:13:37.148Z,13.60
2023-05-14T04:16:06.254Z,12.20
2023-05-14T04:18:35.631Z,14.00
2023-05-14T04:21:04.372Z,15.90
2023-05-14T04:23:32.911Z,13.60
2023-05-14T04:26:01.396Z,9.00
2023-05-14T04:28:29.793Z,13.70
2023-05-14T04:30:58.906Z,9.70
2023-05-14T04:33:27.966Z,11.50
2023-05-14T04:35:56.644Z,9.70
2023-05-14T04:38:25.184Z,8.90
2023-05-14T04:40:53.931Z,17.10
2023-05-14T04:43:22.411Z,17.20
2023-05-14T04:45:52.526Z,11.90
2023-05-14T04:48:21.138Z,11.00
2023-05-14T04:50:49.579Z,13.10
2023-05-14T04:53:18.122Z,14.00
2023-05-14T04:55:46.502Z,10.30
2023-05-14T04:58:15.107Z,10.60
2023-05-14T05:00:44.624Z,10.90
2023-05-14T05:03:13.239Z,9.60
2023-05-14T05:05:41.937Z,15.90
2023-05-14T05:08:11.555Z,17.60
2023-05-14T05:10:40.029Z,15.50
2023-05-14T05:13:08.630Z,14.40
2023-05-14T05:15:37.123Z,12.30
2023-05-14T05:18:06.554Z,19.90
2023-05-14T05:20:35.161Z,11.80
2023-05-14T05:23:03.609Z,15.90
2023-05-14T05:25:32.174Z,14.70
2023-05-14T05:28:00.852Z,14.00
2023-05-14T05:30:30.492Z,13.60
2023-05-14T05:32:59.288Z,12.30
2023-05-14T05:35:29.027Z,13.30
2023-05-14T05:38:00.472Z,14.90
2023-05-14T05:42:58.444Z,12.10
2023-05-14T05:45:27.220Z,15.90
2023-05-14T05:47:55.839Z,12.50
2023-05-14T05:50:24.941Z,12.80
2023-05-14T05:52:53.837Z,10.80
2023-05-14T05:55:22.304Z,17.50
2023-05-14T05:57:50.945Z,10.10
2023-05-14T06:00:20.841Z,14.30
2023-05-14T06:02:49.314Z,11.40
2023-05-14T06:05:18.296Z,10.80
2023-05-14T06:07:46.812Z,13.30
2023-05-14T06:10:15.348Z,16.80
2023-05-14T06:12:43.912Z,20.30
2023-05-14T06:15:13.638Z,10.30
2023-05-14T06:17:42.391Z,15.20
2023-05-14T06:20:11.925Z,17.40
2023-05-14T06:22:40.505Z,11.00
2023-05-14T06:25:09.758Z,14.50
2023-05-14T06:27:38.744Z,18.20
2023-05-14T06:30:08.590Z,10.00
2023-05-14T06:32:37.590Z,11.30
2023-05-14T06:35:08.505Z,11.20
2023-05-14T06:37:37.126Z,12.80
2023-05-14T06:40:07.268Z,11.20
2023-05-14T06:42:35.649Z,12.90
2023-05-14T06:45:07.498Z,12.90
2023-05-14T06:47:36.260Z,13.70
2023-05-14T06:50:05.356Z,10.20
2023-05-14T06:52:33.843Z,9.30
2023-05-14T06:55:02.469Z,11.10
2023-05-14T06:57:31.067Z,8.30
2023-05-14T06:59:59.501Z,10.90
2023-05-14T07:02:28.150Z,8.90
2023-05-14T07:08:37.293Z,6.30
2023-05-14T07:11:05.997Z,8.50
2023-05-14T07:13:34.673Z,8.50
2023-05-14T07:16:03.411Z,8.20
2023-05-14T07:18:32.038Z,9.20
2023-05-14T07:21:00.558Z,11.00
2023-05-14T07:23:29.072Z,10.10
2023-05-14T07:25:57.554Z,10.80
2023-05-14T07:28:26.197Z,10.40
2023-05-14T07:30:54.832Z,10.90
2023-05-14T07:33:24.170Z,10.70
2023-05-14T07:35:54.259Z,6.80
2023-05-14T07:38:22.876Z,7.10
2023-05-14T07:40:51.366Z,5.90
2023-05-14T07:43:19.913Z,7.10
2023-05-14T07:45:48.561Z,7.70
2023-05-14T07:48:17.391Z,6.50
2023-05-14T07:50:48.862Z,9.90
2023-05-14T07:53:18.170Z,7.50
2023-05-14T07:55:48.530Z,5.10
2023-05-14T07:58:17.125Z,4.50
2023-05-14T08:00:45.924Z,7.40
2023-05-14T08:03:14.605Z,6.40
2023-05-14T08:05:43.443Z,5.80
2023-05-14T08:08:12.639Z,5.50
2023-05-14T08:10:41.331Z,5.30
2023-05-14T08:13:09.904Z,5.90
2023-05-14T08:15:38.482Z,8.20
2023-05-14T08:18:07.109Z,7.80
2023-05-14T08:20:35.714Z,4.80
2023-05-14T08:23:04.519Z,8.70
2023-05-14T08:25:34.191Z,5.60
2023-05-14T08:28:02.929Z,4.60
2023-05-14T08:30:31.634Z,5.20
2023-05-14T08:33:00.306Z,7.40
2023-05-14T08:35:28.912Z,4.90
2023-05-14T08:37:57.535Z,7.80
2023-05-14T08:40:27.239Z,5.20
2023-05-14T08:42:58.907Z,4.10
2023-05-14T08:45:34.255Z,5.20
2023-05-14T08:48:09.174Z,8.40
2023-05-14T08:50:38.103Z,6.80
2023-05-14T08:53:07.335Z,5.10
2023-05-14T08:55:37.690Z,9.10
2023-05-14T08:58:06.196Z,6.00
2023-05-14T09:00:35.883Z,8.10
2023-05-14T09:03:07.379Z,5.30
2023-05-14T09:05:36.500Z,4.90
2023-05-14T09:08:05.166Z,7.50
2023-05-14T09:10:33.628Z,5.80
2023-05-14T09:13:02.224Z,3.40
2023-05-14T09:15:31.676Z,6.00
2023-05-14T09:18:00.369Z,4.70
2023-05-14T09:20:29.572Z,7.20
2023-05-14T09:23:02.815Z,6.40
2023-05-14T09:25:32.966Z,6.50
2023-05-14T09:28:07.860Z,6.90
2023-05-14T09:30:37.241Z,5.40
2023-05-14T09:33:07.729Z,6.50
2023-05-14T09:35:41.499Z,6.30
2023-05-14T09:38:09.883Z,4.30
2023-05-14T09:40:38.297Z,5.40
2023-05-14T09:43:06.793Z,3.90
2023-05-14T09:45:35.737Z,3.10
2023-05-14T09:48:04.490Z,9.50
2023-05-14T09:50:33.222Z,8.20
2023-05-14T09:53:02.239Z,4.20
2023-05-14T09:55:31.976Z,5.80
2023-05-14T09:58:00.344Z,6.30
2023-05-14T10:00:31.880Z,8.00
2023-05-14T10:03:06.232Z,8.70
2023-05-14T10:05:37.450Z,7.80
2023-05-14T10:08:14.755Z,6.00
2023-05-14T10:10:43.098Z,8.10
2023-05-14T10:13:15.498Z,5.40
2023-05-14T10:16:20.393Z,6.40
2023-05-14T10:18:57.394Z,4.30
2023-05-14T10:21:31.639Z,4.80
2023-05-14T10:24:00.488Z,17.50
2023-05-14T10:26:29.257Z,6.30
2023-05-14T10:28:59.411Z,7.50
2023-05-14T10:31:55.606Z,5.90
2023-05-14T10:34:46.677Z,7.10
2023-05-14T10:37:26.079Z,5.70
2023-05-14T10:39:58.970Z,8.70
2023-05-14T10:42:32.246Z,8.20
2023-05-14T10:45:06.018Z,7.30
2023-05-14T10:47:40.748Z,9.70
2023-05-14T10:50:12.557Z,6.70
2023-05-14T10:52:43.761Z,8.90
2023-05-14T10:55:17.218Z,5.30
2023-05-14T10:57:46.929Z,8.90
2023-05-14T11:00:17.362Z,8.70
2023-05-14T11:02:46.962Z,7.20
2023-05-14T11:05:17.973Z,10.50
2023-05-14T11:07:49.276Z,8.90
2023-05-14T11:10:20.646Z,7.60
2023-05-14T11:12:51.972Z,8.60
2023-05-14T11:15:26.838Z,4.00
2023-05-14T11:17:55.389Z,7.10
2023-05-14T11:20:24.175Z,6.20
2023-05-14T11:22:53.054Z,5.20
2023-05-14T11:25:22.979Z,6.70
2023-05-14T11:27:52.404Z,6.50
2023-05-14T11:30:22.025Z,4.20
2023-05-14T11:32:51.422Z,6.20
2023-05-14T11:35:19.976Z,5.90
2023-05-14T11:37:53.047Z,6.00
2023-05-14T11:40:21.781Z,4.60
2023-05-14T11:42:53.957Z,14.50
2023-05-14T11:47:55.282Z,6.50
2023-05-14T11:50:24.195Z,5.80
2023-05-14T11:52:57.631Z,5.80
2023-05-14T11:55:26.314Z,6.90
2023-05-14T11:57:55.095Z,4.50
2023-05-14T12:00:25.943Z,5.90
2023-05-14T12:02:55.036Z,4.10
2023-05-14T12:05:23.491Z,5.70
2023-05-14T12:07:52.217Z,4.30
2023-05-14T12:10:20.781Z,4.50
2023-05-14T12:12:49.425Z,5.60
2023-05-14T12:15:18.650Z,3.20
2023-05-14T12:17:52.153Z,8.70
2023-05-14T12:20:20.895Z,3.70
2023-05-14T12:22:49.484Z,4.50
2023-05-14T12:25:18.013Z,3.70
2023-05-14T12:27:46.439Z,6.90
2023-05-14T12:32:46.989Z,6.50
2023-05-14T12:35:15.608Z,4.80
2023-05-14T12:37:44.208Z,3.80
2023-05-14T12:40:13.244Z,3.60
2023-05-14T12:42:42.041Z,3.50
2023-05-14T12:45:11.482Z,6.50
2023-05-14T12:47:40.148Z,5.30
2023-05-14T12:50:09.456Z,4.30
2023-05-14T12:52:39.997Z,5.50
2023-05-14T12:55:09.849Z,4.80
2023-05-14T12:57:39.838Z,4.90
2023-05-14T13:00:21.578Z,5.40
2023-05-14T13:02:50.382Z,4.60
2023-05-14T13:05:19.105Z,7.20
2023-05-14T13:07:47.851Z,4.30
2023-05-14T13:10:18.531Z,5.00
2023-05-14T13:12:47.054Z,4.10
2023-05-14T13:15:15.869Z,6.30
2023-05-14T13:17:44.771Z,4.00
2023-05-14T13:20:13.548Z,4.80
2023-05-14T13:22:42.422Z,4.30
2023-05-14T13:25:11.022Z,7.20
2023-05-14T13:27:39.628Z,5.30
2023-05-14T13:30:08.795Z,5.60
2023-05-14T13:32:37.434Z,5.30
2023-05-14T13:35:07.938Z,6.20
2023-05-14T13:37:36.867Z,7.20
2023-05-14T13:40:08.689Z,3.30
2023-05-14T13:42:37.788Z,5.00
2023-05-14T13:45:07.565Z,5.80
2023-05-14T13:47:36.308Z,8.30
2023-05-14T13:50:05.599Z,10.80
2023-05-14T13:52:34.191Z,5.50
2023-05-14T13:55:02.714Z,7.40
2023-05-14T13:57:31.355Z,4.50
2023-05-14T14:00:00.155Z,5.30
2023-05-14T14:02:29.006Z,3.70
2023-05-14T14:04:57.629Z,4.10
2023-05-14T14:07:26.183Z,5.50
2023-05-14T14:09:55.868Z,4.90
2023-05-14T14:12:24.568Z,4.40
2023-05-14T14:14:53.277Z,2.90
2023-05-14T14:17:21.882Z,3.00
2023-05-14T14:19:50.552Z,8.20
2023-05-14T14:22:19.278Z,5.60
2023-05-14T14:24:47.954Z,5.90
2023-05-14T14:27:16.659Z,4.00
2023-05-14T14:29:45.144Z,8.10
2023-05-14T14:32:14.842Z,4.00
2023-05-14T14:34:43.403Z,2.50
2023-05-14T14:37:12.117Z,3.80
2023-05-14T14:39:40.769Z,3.80
2023-05-14T14:42:09.672Z,3.40
2023-05-14T14:44:38.420Z,6.00
2023-05-14T14:47:07.353Z,7.10
2023-05-14T14:49:36.967Z,7.00
2023-05-14T14:52:05.791Z,3.20
2023-05-14T14:54:34.575Z,7.50
2023-05-14T14:57:05.647Z,6.20
2023-05-14T14:59:35.835Z,6.30
2023-05-14T15:02:04.786Z,3.70
2023-05-14T15:04:34.973Z,6.80
2023-05-14T15:07:03.716Z,5.80
2023-05-14T15:09:32.616Z,6.40
2023-05-14T15:12:01.456Z,2.90
2023-05-14T15:14:30.221Z,3.70
2023-05-14T15:16:59.163Z,3.00
2023-05-14T15:19:29.881Z,5.50
2023-05-14T15:21:58.868Z,5.20
2023-05-14T15:24:27.549Z,5.20
2023-05-14T15:26:56.129Z,4.00
2023-05-14T15:29:25.495Z,2.80
2023-05-14T15:31:54.582Z,4.10
2023-05-14T15:34:23.324Z,4.20
2023-05-14T15:36:51.953Z,4.20
2023-05-14T15:39:20.483Z,10.50
2023-05-14T15:41:49.036Z,4.70
2023-05-14T15:44:17.652Z,6.10
2023-05-14T15:46:46.346Z,3.60
2023-05-14T15:49:15.114Z,6.00
2023-05-14T15:51:43.732Z,4.90
2023-05-14T15:54:12.481Z,5.60
2023-05-14T15:56:41.161Z,3.90
2023-05-14T15:59:09.942Z,2.30
2023-05-14T16:01:38.625Z,2.90
2023-05-14T16:04:07.295Z,3.60
2023-05-14T16:06:36.471Z,5.80
2023-05-14T16:09:05.304Z,4.90
2023-05-14T16:11:34.005Z,4.30
2023-05-14T16:14:02.746Z,13.80
2023-05-14T16:16:31.467Z,3.90
2023-05-14T16:19:00.328Z,6.30
2023-05-14T16:21:28.993Z,5.20
2023-05-14T16:23:57.650Z,4.00
2023-05-14T16:26:26.685Z,3.80
2023-05-14T16:28:55.281Z,7.50
2023-05-14T16:31:24.057Z,5.90
2023-05-14T16:33:52.688Z,4.40
2023-05-14T16:36:21.293Z,6.00
2023-05-14T16:39:06.801Z,5.10
2023-05-14T16:41:36.508Z,3.50
2023-05-14T16:44:05.251Z,7.30
2023-05-14T16:46:34.165Z,5.90
2023-05-14T16:49:02.949Z,9.60
2023-05-14T16:51:32.018Z,3.50
2023-05-14T16:54:00.746Z,7.40
2023-05-14T16:56:30.470Z,3.80
2023-05-14T16:58:59.033Z,6.50
2023-05-14T17:01:27.543Z,5.50
2023-05-14T17:03:56.409Z,5.70
2023-05-14T17:06:25.098Z,6.90
2023-05-14T17:08:53.645Z,7.10
2023-05-14T17:11:22.194Z,7.40
2023-05-14T17:14:01.652Z,8.40
2023-05-14T17:16:29.145Z,5.50
2023-05-14T17:18:56.934Z,5.30
2023-05-14T17:21:25.977Z,4.40
2023-05-14T17:23:54.589Z,5.80
2023-05-14T17:26:23.646Z,6.30
2023-05-14T17:28:52.322Z,3.80
2023-05-14T17:31:22.555Z,7.90
2023-05-14T17:33:51.198Z,4.60
2023-05-14T17:36:19.681Z,5.40
2023-05-14T17:38:48.345Z,5.50
2023-05-14T17:41:16.746Z,8.30
2023-05-14T17:43:45.389Z,6.50
2023-05-14T17:46:14.298Z,5.30
2023-05-14T17:48:42.980Z,7.90
2023-05-14T17:51:11.485Z,6.20
2023-05-14T17:53:40.060Z,9.30
2023-05-14T17:56:08.673Z,9.90
2023-05-14T17:58:37.314Z,4.60
2023-05-14T18:01:06.254Z,4.80
2023-05-14T18:03:35.129Z,5.60
2023-05-14T18:06:04.502Z,9.40
2023-05-14T18:08:33.064Z,7.90
2023-05-14T18:11:01.710Z,7.50
2023-05-14T18:13:30.307Z,11.30
2023-05-14T18:15:58.827Z,6.50
2023-05-14T18:18:27.657Z,8.80
2023-05-14T18:20:56.223Z,18.40
2023-05-14T18:23:24.981Z,7.40
2023-05-14T18:25:54.232Z,7.70
2023-05-14T18:28:22.947Z,6.60
2023-05-14T18:30:51.542Z,4.10
2023-05-14T18:33:20.141Z,8.70
2023-05-14T18:35:48.606Z,12.40
2023-05-14T18:38:18.308Z,12.70
2023-05-14T18:40:46.992Z,6.30
2023-05-14T18:43:18.531Z,12.60
2023-05-14T18:45:47.614Z,17.90
2023-05-14T18:48:16.625Z,14.60
2023-05-14T18:50:45.184Z,7.10
2023-05-14T18:53:13.713Z,20.90
2023-05-14T18:55:42.298Z,12.30
2023-05-14T18:58:11.128Z,5.40
2023-05-14T19:00:39.828Z,10.00
2023-05-14T19:03:08.733Z,8.90
2023-05-14T19:05:38.130Z,7.50
2023-05-14T19:08:07.973Z,9.90
2023-05-14T19:10:36.515Z,10.70
2023-05-14T19:13:05.407Z,9.70
2023-05-14T19:15:33.931Z,11.80
2023-05-14T19:18:02.391Z,7.60
2023-05-14T19:20:30.884Z,9.10
2023-05-14T19:22:59.425Z,8.40
2023-05-14T19:25:28.283Z,8.50
2023-05-14T19:27:58.004Z,7.90
2023-05-14T19:30:26.526Z,9.30
2023-05-14T19:32:55.183Z,9.30
2023-05-14T19:35:24.317Z,9.00
2023-05-14T19:37:53.190Z,12.80
2023-05-14T19:40:22.192Z,6.80
2023-05-14T19:42:50.659Z,7.00
2023-05-14T19:45:19.168Z,7.20
2023-05-14T19:47:47.685Z,11.50
2023-05-14T19:50:16.152Z,7.10
2023-05-14T19:52:44.698Z,10.40
2023-05-14T19:55:13.173Z,10.20
2023-05-14T19:57:41.756Z,9.50
2023-05-14T20:00:12.103Z,12.00
2023-05-14T20:02:41.062Z,10.00
2023-05-14T20:05:10.750Z,9.40
2023-05-14T20:07:40.345Z,9.80
2023-05-14T20:10:10.072Z,10.10
2023-05-14T20:12:38.733Z,13.00
2023-05-14T20:15:08.018Z,9.90
2023-05-14T20:17:38.310Z,15.60
2023-05-14T20:20:09.364Z,12.20
2023-05-14T20:22:38.633Z,12.70
2023-05-14T20:25:08.051Z,9.90
2023-05-14T20:27:36.971Z,13.40
2023-05-14T20:30:09.301Z,12.70
2023-05-14T20:32:37.858Z,13.50
2023-05-14T20:35:07.268Z,13.20
2023-05-14T20:37:35.946Z,14.80
2023-05-14T20:40:06.324Z,11.70
2023-05-14T20:42:36.496Z,13.40
2023-05-14T20:45:06.780Z,12.80
2023-05-14T20:47:35.795Z,12.80
2023-05-14T20:53:45.955Z,13.20
2023-05-14T20:56:14.585Z,12.70
2023-05-14T20:58:43.195Z,16.90
2023-05-14T21:01:11.886Z,13.30
2023-05-14T21:03:40.582Z,12.50
2023-05-14T21:06:09.124Z,12.20
2023-05-14T21:08:39.388Z,10.80
2023-05-14T21:11:08.723Z,11.60
2023-05-14T21:13:37.280Z,10.20
2023-05-14T21:16:06.338Z,11.30
2023-05-14T21:18:35.055Z,13.70
2023-05-14T21:21:03.963Z,9.70
2023-05-14T21:23:32.609Z,15.30
2023-05-14T21:26:01.156Z,10.50
2023-05-14T21:28:29.639Z,11.90
2023-05-14T21:30:58.160Z,14.40
2023-05-14T21:33:26.699Z,10.40
2023-05-14T21:35:55.262Z,11.30
2023-05-14T21:38:23.752Z,13.40
2023-05-14T21:40:52.248Z,11.70
2023-05-14T21:43:20.711Z,13.30
2023-05-14T21:45:49.215Z,12.70
2023-05-14T21:48:18.111Z,16.00
2023-05-14T21:50:47.003Z,9.70
2023-05-14T21:53:15.682Z,12.50
2023-05-14T21:55:44.257Z,10.70
2023-05-14T21:58:12.718Z,11.40
2023-05-14T22:00:41.391Z,13.30
2023-05-14T22:03:10.180Z,12.40
2023-05-14T22:05:38.950Z,11.20
2023-05-14T22:08:07.674Z,14.70
2023-05-14T22:10:36.256Z,11.30
2023-05-14T22:13:04.702Z,15.30
2023-05-14T22:15:33.180Z,12.10
2023-05-14T22:18:03.301Z,17.60
2023-05-14T22:20:31.893Z,11.90
2023-05-14T22:23:00.247Z,12.20
2023-05-14T22:25:28.827Z,12.10
2023-05-14T22:27:57.394Z,12.90
2023-05-14T22:30:25.973Z,12.40
2023-05-14T22:32:54.433Z,10.90
2023-05-14T22:35:23.056Z,10.10
2023-05-14T22:37:51.627Z,10.90
2023-05-14T22:40:20.348Z,13.80
2023-05-14T22:42:48.820Z,15.10
2023-05-14T22:45:17.367Z,11.00
2023-05-14T22:47:46.034Z,12.60
2023-05-14T22:50:14.584Z,14.10
2023-05-14T22:52:43.165Z,8.60
2023-05-14T22:55:11.675Z,9.20
2023-05-14T22:57:40.355Z,4.60
2023-05-14T23:00:09.613Z,4.30
2023-05-14T23:02:38.246Z,8.40
2023-05-14T23:05:09.054Z,6.50
2023-05-14T23:07:37.638Z,8.30
2023-05-14T23:10:06.736Z,5.30
2023-05-14T23:12:35.240Z,4.50
2023-05-14T23:15:04.169Z,6.80
2023-05-14T23:17:32.798Z,4.80
2023-05-14T23:20:01.510Z,9.10
2023-05-14T23:22:29.964Z,4.70
2023-05-14T23:24:58.450Z,8.60
2023-05-14T23:27:27.423Z,4.90
2023-05-14T23:29:55.776Z,4.50
2023-05-14T23:32:24.430Z,3.70
2023-05-14T23:34:52.984Z,4.20
2023-05-14T23:37:21.615Z,4.50
2023-05-14T23:39:50.494Z,8.20
2023-05-14T23:42:19.008Z,5.90
2023-05-14T23:44:47.460Z,3.80
2023-05-14T23:47:16.217Z,6.10
2023-05-14T23:49:44.721Z,4.50
2023-05-14T23:52:13.240Z,3.40
2023-05-14T23:54:41.700Z,7.20
2023-05-14T23:57:13.033Z,3.80
2023-05-14T23:59:43.065Z,4.10
